createdAt,value
2023-04-27T00:02:20.743Z,16.78
2023-04-27T00:04:48.339Z,16.82
2023-04-27T00:07:15.864Z,16.78
2023-04-27T00:09:43.030Z,16.71
2023-04-27T00:12:10.263Z,16.76
2023-04-27T00:14:38.070Z,16.77
2023-04-27T00:17:05.278Z,16.69
2023-04-27T00:19:32.513Z,16.62
2023-04-27T00:22:00.594Z,16.57
2023-04-27T00:24:27.980Z,16.54
2023-04-27T00:26:55.128Z,16.50
2023-04-27T00:29:22.390Z,16.56
2023-04-27T00:31:49.540Z,16.42
2023-04-27T00:34:16.729Z,16.56
2023-04-27T00:36:44.038Z,16.58
2023-04-27T00:39:13.298Z,16.57
2023-04-27T00:41:40.797Z,16.52
2023-04-27T00:44:08.147Z,16.57
2023-04-27T00:46:37.101Z,16.78
2023-04-27T00:49:04.766Z,16.80
2023-04-27T00:51:32.384Z,16.83
2023-04-27T00:54:01.091Z,16.92
2023-04-27T00:56:28.328Z,16.82
2023-04-27T00:58:55.803Z,16.94
2023-04-27T01:01:23.935Z,16.92
2023-04-27T01:03:51.845Z,17.11
2023-04-27T01:06:19.203Z,17.08
2023-04-27T01:08:47.049Z,16.99
2023-04-27T01:11:14.459Z,17.12
2023-04-27T01:13:41.800Z,17.02
2023-04-27T01:16:09.171Z,16.88
2023-04-27T01:18:40.845Z,16.98
2023-04-27T01:21:08.265Z,16.85
2023-04-27T01:23:36.108Z,16.81
2023-04-27T01:26:04.654Z,16.88
2023-04-27T01:28:31.918Z,16.80
2023-04-27T01:31:01.306Z,16.57
2023-04-27T01:33:28.506Z,16.61
2023-04-27T01:35:56.029Z,16.67
2023-04-27T01:38:24.259Z,16.65
2023-04-27T01:40:51.725Z,16.65
2023-04-27T01:43:22.028Z,16.45
2023-04-27T01:45:49.143Z,16.63
2023-04-27T01:48:16.730Z,16.57
2023-04-27T01:50:44.596Z,16.53
2023-04-27T01:53:11.696Z,16.59
2023-04-27T01:55:38.972Z,16.52
2023-04-27T01:58:06.241Z,16.57
2023-04-27T02:00:33.826Z,16.57
2023-04-27T02:03:01.412Z,16.49
2023-04-27T02:05:29.044Z,16.60
2023-04-27T02:07:56.291Z,16.70
2023-04-27T02:10:23.880Z,16.83
2023-04-27T02:12:57.338Z,16.86
2023-04-27T02:15:24.821Z,16.79
2023-04-27T02:17:52.095Z,16.91
2023-04-27T02:20:19.531Z,16.90
2023-04-27T02:22:46.816Z,16.90
2023-04-27T02:25:14.004Z,16.81
2023-04-27T02:27:43.635Z,16.71
2023-04-27T02:30:12.745Z,16.66
2023-04-27T02:32:41.618Z,16.48
2023-04-27T02:35:09.967Z,16.49
2023-04-27T02:37:37.947Z,16.33
2023-04-27T02:40:08.073Z,15.95
2023-04-27T02:42:39.167Z,15.48
2023-04-27T02:45:08.560Z,15.31
2023-04-27T02:47:37.512Z,15.19
2023-04-27T02:50:05.127Z,15.11
2023-04-27T02:52:34.812Z,15.17
2023-04-27T02:55:01.963Z,15.32
2023-04-27T02:57:32.863Z,15.26
2023-04-27T03:00:00.202Z,15.48
2023-04-27T03:02:27.624Z,15.33
2023-04-27T03:04:55.399Z,15.30
2023-04-27T03:07:23.129Z,15.28
2023-04-27T03:09:50.259Z,15.36
2023-04-27T03:12:17.453Z,15.44
2023-04-27T03:14:44.802Z,15.45
2023-04-27T03:17:12.030Z,15.39
2023-04-27T03:19:40.549Z,15.34
2023-04-27T03:22:07.713Z,15.10
2023-04-27T03:24:35.802Z,15.07
2023-04-27T03:27:02.962Z,14.96
2023-04-27T03:29:30.556Z,14.86
2023-04-27T03:31:57.857Z,15.01
2023-04-27T03:34:24.980Z,15.04
2023-04-27T03:36:52.124Z,15.08
2023-04-27T03:39:19.370Z,15.19
2023-04-27T03:41:46.624Z,15.25
2023-04-27T03:44:13.969Z,15.39
2023-04-27T03:46:42.106Z,15.33
2023-04-27T03:49:09.305Z,15.48
2023-04-27T03:51:38.453Z,15.51
2023-04-27T03:54:05.832Z,15.64
2023-04-27T03:56:33.131Z,15.81
2023-04-27T03:59:01.099Z,15.96
2023-04-27T04:01:34.853Z,16.11
2023-04-27T04:04:02.512Z,16.08
2023-04-27T04:06:32.091Z,16.21
2023-04-27T04:08:59.224Z,16.15
2023-04-27T04:11:27.539Z,16.27
2023-04-27T04:13:57.645Z,16.38
2023-04-27T04:16:24.889Z,16.41
2023-04-27T04:18:53.653Z,16.50
2023-04-27T04:21:21.772Z,16.48
2023-04-27T04:23:48.914Z,16.59
2023-04-27T04:26:16.817Z,16.76
2023-04-27T04:28:44.667Z,16.77
2023-04-27T04:31:11.791Z,16.89
2023-04-27T04:33:39.820Z,16.75
2023-04-27T04:36:07.916Z,16.85
2023-04-27T04:38:35.179Z,16.95
2023-04-27T04:41:02.523Z,17.01
2023-04-27T04:43:32.947Z,17.09
2023-04-27T04:46:04.426Z,17.05
2023-04-27T04:48:32.547Z,17.04
2023-04-27T04:50:59.680Z,17.16
2023-04-27T04:53:27.111Z,17.18
2023-04-27T04:55:56.714Z,17.14
2023-04-27T04:58:23.990Z,17.08
2023-04-27T05:00:51.217Z,16.97
2023-04-27T05:03:18.916Z,17.20
2023-04-27T05:05:47.991Z,17.22
2023-04-27T05:08:16.599Z,17.33
2023-04-27T05:10:49.901Z,17.35
2023-04-27T05:13:17.557Z,17.35
2023-04-27T05:15:44.700Z,17.41
2023-04-27T05:18:12.012Z,17.42
2023-04-27T05:20:39.469Z,17.51
2023-04-27T05:23:06.703Z,17.59
2023-04-27T05:25:37.787Z,17.60
2023-04-27T05:28:05.128Z,17.67
2023-04-27T05:30:32.402Z,17.68
2023-04-27T05:32:59.747Z,17.72
2023-04-27T05:35:26.906Z,17.71
2023-04-27T05:37:54.115Z,17.83
2023-04-27T05:40:21.805Z,17.77
2023-04-27T05:42:49.858Z,17.81
2023-04-27T05:45:17.055Z,17.87
2023-04-27T05:47:44.303Z,17.98
2023-04-27T05:50:11.962Z,17.97
2023-04-27T05:52:53.128Z,17.92
2023-04-27T05:55:20.292Z,18.12
2023-04-27T05:57:54.507Z,18.19
2023-04-27T06:00:32.369Z,18.24
2023-04-27T06:02:59.576Z,18.19
2023-04-27T06:05:26.942Z,18.11
2023-04-27T06:07:54.237Z,18.19
2023-04-27T06:10:21.460Z,18.38
2023-04-27T06:12:48.522Z,18.34
2023-04-27T06:15:16.019Z,18.38
2023-04-27T06:17:46.090Z,18.41
2023-04-27T06:20:13.512Z,18.45
2023-04-27T06:22:40.672Z,18.21
2023-04-27T06:25:08.392Z,18.33
2023-04-27T06:27:35.672Z,18.33
2023-04-27T06:30:03.148Z,18.39
2023-04-27T06:32:32.951Z,18.58
2023-04-27T06:35:00.153Z,18.60
2023-04-27T06:37:27.418Z,18.62
2023-04-27T06:39:54.809Z,18.72
2023-04-27T06:42:22.068Z,18.76
2023-04-27T06:44:52.315Z,18.83
2023-04-27T06:47:19.575Z,18.88
2023-04-27T06:49:48.525Z,18.97
2023-04-27T06:52:17.658Z,19.02
2023-04-27T06:54:46.516Z,19.06
2023-04-27T06:57:13.810Z,18.96
2023-04-27T06:59:41.010Z,19.17
2023-04-27T07:10:17.255Z,19.31
2023-04-27T07:12:45.721Z,19.38
2023-04-27T07:15:13.505Z,19.39
2023-04-27T07:17:40.671Z,19.55
2023-04-27T07:20:08.854Z,19.56
2023-04-27T07:22:36.623Z,19.57
2023-04-27T07:25:05.532Z,19.77
2023-04-27T07:27:33.307Z,19.74
2023-04-27T07:30:00.443Z,19.88
2023-04-27T07:32:29.260Z,19.87
2023-04-27T07:34:57.146Z,19.97
2023-04-27T07:37:24.383Z,19.94
2023-04-27T07:39:54.888Z,20.01
2023-04-27T07:42:25.445Z,20.02
2023-04-27T07:44:52.772Z,20.13
2023-04-27T07:47:20.129Z,20.12
2023-04-27T07:49:47.544Z,20.22
2023-04-27T07:52:14.865Z,20.33
2023-04-27T07:54:42.058Z,20.25
2023-04-27T07:57:11.664Z,20.34
2023-04-27T07:59:39.417Z,20.46
2023-04-27T08:02:17.759Z,20.45
2023-04-27T08:04:49.554Z,20.38
2023-04-27T08:07:17.822Z,20.48
2023-04-27T08:09:45.209Z,20.32
2023-04-27T08:12:12.645Z,20.51
2023-04-27T08:14:39.947Z,20.48
2023-04-27T08:17:07.223Z,20.53
2023-04-27T08:19:34.776Z,20.53
2023-04-27T08:22:02.851Z,20.59
2023-04-27T08:24:30.103Z,20.76
2023-04-27T08:26:57.688Z,20.81
2023-04-27T08:29:28.855Z,20.88
2023-04-27T08:32:00.691Z,20.95
2023-04-27T08:34:29.028Z,21.14
2023-04-27T08:36:57.222Z,21.18
2023-04-27T08:39:25.801Z,21.19
2023-04-27T08:41:53.514Z,21.22
2023-04-27T08:44:20.822Z,21.34
2023-04-27T08:46:48.463Z,21.43
2023-04-27T08:49:17.077Z,21.55
2023-04-27T08:51:44.844Z,21.67
2023-04-27T08:54:13.168Z,21.80
2023-04-27T08:56:41.915Z,21.87
2023-04-27T08:59:15.778Z,22.12
2023-04-27T09:01:49.152Z,22.32
2023-04-27T09:04:18.289Z,22.33
2023-04-27T09:06:46.361Z,22.50
2023-04-27T09:09:23.876Z,22.53
2023-04-27T09:11:51.650Z,22.62
2023-04-27T09:14:21.928Z,22.73
2023-04-27T09:16:57.900Z,22.58
2023-04-27T09:19:29.926Z,22.79
2023-04-27T09:22:11.388Z,22.93
2023-04-27T09:24:39.312Z,22.99
2023-04-27T09:27:08.774Z,22.98
2023-04-27T09:29:37.835Z,23.03
2023-04-27T09:32:19.245Z,23.15
2023-04-27T09:34:47.053Z,23.16
2023-04-27T09:37:14.683Z,23.15
2023-04-27T09:39:42.926Z,23.17
2023-04-27T09:42:12.652Z,23.11
2023-04-27T09:44:39.828Z,23.03
2023-04-27T09:47:07.842Z,23.09
2023-04-27T09:49:36.408Z,23.20
2023-04-27T09:52:04.505Z,23.33
2023-04-27T09:54:34.745Z,23.48
2023-04-27T09:57:13.567Z,23.58
2023-04-27T10:00:11.224Z,23.70
2023-04-27T10:02:53.657Z,23.79
2023-04-27T10:05:37.910Z,23.89
2023-04-27T10:08:06.833Z,23.92
2023-04-27T10:10:44.411Z,23.97
2023-04-27T10:13:24.056Z,24.09
2023-04-27T10:15:52.690Z,24.03
2023-04-27T10:18:33.428Z,24.12
2023-04-27T10:21:10.953Z,24.08
2023-04-27T10:23:51.254Z,24.16
2023-04-27T10:26:27.015Z,24.19
2023-04-27T10:29:07.496Z,24.30
2023-04-27T10:31:35.971Z,24.37
2023-04-27T10:34:11.088Z,24.41
2023-04-27T10:36:41.326Z,24.42
2023-04-27T10:39:36.186Z,24.53
2023-04-27T10:42:13.343Z,24.58
2023-04-27T10:44:40.469Z,24.52
2023-04-27T10:47:20.025Z,24.58
2023-04-27T10:49:47.281Z,24.60
2023-04-27T10:52:14.861Z,24.62
2023-04-27T10:54:47.330Z,24.64
2023-04-27T10:57:14.649Z,24.55
2023-04-27T10:59:53.699Z,24.62
2023-04-27T11:02:29.022Z,24.69
2023-04-27T11:04:56.801Z,24.66
2023-04-27T11:07:28.559Z,24.71
2023-04-27T11:09:56.140Z,24.76
2023-04-27T11:12:24.262Z,24.75
2023-04-27T11:14:57.987Z,24.70
2023-04-27T11:17:30.185Z,24.57
2023-04-27T11:19:57.304Z,24.59
2023-04-27T11:22:24.650Z,24.44
2023-04-27T11:24:53.630Z,24.37
2023-04-27T11:27:23.556Z,24.33
2023-04-27T11:29:51.472Z,24.21
2023-04-27T11:32:23.116Z,24.20
2023-04-27T11:34:53.666Z,24.20
2023-04-27T11:37:24.975Z,24.21
2023-04-27T11:39:54.270Z,24.17
2023-04-27T11:42:24.489Z,24.29
2023-04-27T11:44:53.744Z,24.35
2023-04-27T11:47:22.775Z,24.38
2023-04-27T11:49:52.277Z,24.43
2023-04-27T11:52:19.489Z,24.47
2023-04-27T11:54:48.732Z,24.51
2023-04-27T11:57:16.588Z,24.49
2023-04-27T11:59:43.972Z,24.55
2023-04-27T12:02:11.334Z,24.51
2023-04-27T12:04:38.832Z,24.55
2023-04-27T12:07:06.263Z,24.67
2023-04-27T12:09:34.619Z,24.72
2023-04-27T12:12:02.707Z,24.70
2023-04-27T12:14:30.077Z,24.67
2023-04-27T12:16:57.332Z,24.54
2023-04-27T12:19:26.114Z,24.68
2023-04-27T12:21:54.173Z,24.71
2023-04-27T12:24:21.932Z,24.76
2023-04-27T12:26:49.610Z,24.77
2023-04-27T12:29:16.902Z,24.78
2023-04-27T12:31:44.762Z,24.68
2023-04-27T12:34:13.114Z,24.65
2023-04-27T12:36:41.438Z,24.66
2023-04-27T12:39:16.037Z,24.72
2023-04-27T12:41:48.405Z,24.71
2023-04-27T12:44:17.011Z,24.67
2023-04-27T12:46:45.011Z,24.61
2023-04-27T12:49:15.182Z,24.75
2023-04-27T12:51:42.622Z,24.66
2023-04-27T12:54:11.433Z,24.73
2023-04-27T12:56:38.841Z,24.58
2023-04-27T12:59:08.816Z,24.70
2023-04-27T13:01:36.342Z,24.76
2023-04-27T13:04:06.240Z,24.79
2023-04-27T13:06:33.594Z,24.70
2023-04-27T13:09:01.214Z,24.72
2023-04-27T13:11:28.930Z,24.74
2023-04-27T13:13:56.076Z,24.75
2023-04-27T13:16:25.680Z,24.69
2023-04-27T13:18:55.613Z,24.64
2023-04-27T13:21:23.508Z,24.69
2023-04-27T13:23:51.855Z,24.63
2023-04-27T13:26:19.183Z,24.63
2023-04-27T13:28:46.325Z,24.69
2023-04-27T13:31:13.668Z,24.63
2023-04-27T13:33:43.408Z,24.55
2023-04-27T13:36:11.505Z,24.65
2023-04-27T13:38:39.413Z,24.61
2023-04-27T13:41:07.041Z,24.55
2023-04-27T13:43:34.580Z,24.52
2023-04-27T13:46:03.074Z,24.46
2023-04-27T13:48:31.325Z,24.36
2023-04-27T13:50:58.979Z,24.34
2023-04-27T13:53:26.749Z,24.20
2023-04-27T13:55:55.213Z,24.16
2023-04-27T13:58:25.090Z,24.14
2023-04-27T14:00:53.600Z,24.10
2023-04-27T14:03:21.738Z,24.08
2023-04-27T14:05:51.153Z,24.07
2023-04-27T14:08:18.736Z,24.11
2023-04-27T14:10:46.746Z,24.14
2023-04-27T14:13:14.512Z,24.11
2023-04-27T14:15:42.243Z,24.16
2023-04-27T14:18:09.913Z,24.10
2023-04-27T14:20:39.100Z,24.16
2023-04-27T14:23:07.148Z,24.22
2023-04-27T14:25:35.255Z,24.22
2023-04-27T14:28:04.803Z,24.19
2023-04-27T14:30:35.687Z,24.13
2023-04-27T14:33:03.410Z,24.12
2023-04-27T14:35:30.953Z,24.03
2023-04-27T14:38:02.356Z,24.04
2023-04-27T14:40:33.168Z,23.99
2023-04-27T14:43:00.574Z,23.96
2023-04-27T14:45:36.596Z,23.95
2023-04-27T14:48:07.631Z,23.83
2023-04-27T14:50:35.141Z,23.87
2023-04-27T14:53:02.395Z,23.80
2023-04-27T14:55:29.702Z,23.71
2023-04-27T14:57:56.906Z,23.75
2023-04-27T15:00:24.448Z,23.69
2023-04-27T15:02:51.850Z,23.70
2023-04-27T15:05:19.023Z,23.72
2023-04-27T15:07:46.407Z,23.69
2023-04-27T15:10:13.605Z,23.59
2023-04-27T15:12:40.863Z,23.54
2023-04-27T15:15:10.523Z,23.46
2023-04-27T15:17:38.007Z,23.39
2023-04-27T15:20:06.297Z,23.36
2023-04-27T15:22:33.795Z,23.35
2023-04-27T15:25:00.869Z,23.20
2023-04-27T15:27:28.078Z,23.18
2023-04-27T15:29:55.844Z,23.13
2023-04-27T15:32:24.904Z,23.14
2023-04-27T15:34:52.335Z,23.03
2023-04-27T15:37:19.598Z,23.07
2023-04-27T15:39:46.732Z,23.00
2023-04-27T15:42:13.917Z,22.89
2023-04-27T15:44:41.089Z,22.79
2023-04-27T15:47:08.472Z,22.84
2023-04-27T15:49:45.899Z,22.64
2023-04-27T15:52:21.672Z,22.62
2023-04-27T15:54:48.917Z,22.45
2023-04-27T15:57:16.316Z,22.41
2023-04-27T15:59:43.552Z,22.48
2023-04-27T16:02:10.945Z,22.50
2023-04-27T16:04:38.363Z,22.44
2023-04-27T16:07:08.911Z,22.53
2023-04-27T16:09:36.456Z,22.42
2023-04-27T16:12:04.002Z,22.39
2023-04-27T16:14:31.419Z,22.32
2023-04-27T16:17:02.568Z,22.34
2023-04-27T16:19:29.928Z,22.21
2023-04-27T16:21:57.789Z,22.23
2023-04-27T16:24:27.162Z,22.10
2023-04-27T16:26:54.404Z,22.08
2023-04-27T16:29:21.516Z,22.04
2023-04-27T16:31:53.315Z,22.05
2023-04-27T16:34:20.704Z,21.88
2023-04-27T16:36:48.725Z,21.82
2023-04-27T16:39:16.461Z,21.73
2023-04-27T16:41:43.853Z,21.69
2023-04-27T16:44:12.895Z,21.68
2023-04-27T16:46:40.444Z,21.65
2023-04-27T16:49:08.390Z,21.58
2023-04-27T16:51:36.411Z,21.55
2023-04-27T16:54:04.081Z,21.55
2023-04-27T16:56:35.393Z,21.47
2023-04-27T16:59:04.469Z,21.44
2023-04-27T17:01:31.785Z,21.40
2023-04-27T17:04:02.328Z,21.37
2023-04-27T17:06:30.121Z,21.37
2023-04-27T17:08:58.053Z,21.36
2023-04-27T17:11:25.395Z,21.40
2023-04-27T17:13:52.689Z,21.49
2023-04-27T17:16:20.201Z,21.50
2023-04-27T17:18:47.991Z,21.51
2023-04-27T17:21:16.799Z,21.41
2023-04-27T17:23:46.693Z,21.48
2023-04-27T17:26:16.117Z,21.42
2023-04-27T17:28:43.610Z,21.48
2023-04-27T17:31:10.790Z,21.38
2023-04-27T17:33:39.322Z,21.28
2023-04-27T17:36:09.786Z,21.13
2023-04-27T17:38:37.750Z,21.00
2023-04-27T17:41:05.017Z,20.93
2023-04-27T17:43:32.245Z,20.81
2023-04-27T17:45:59.410Z,20.77
2023-04-27T17:48:26.990Z,20.70
2023-04-27T17:50:54.798Z,20.66
2023-04-27T17:53:21.990Z,20.68
2023-04-27T17:55:49.216Z,20.70
2023-04-27T17:58:17.213Z,20.76
2023-04-27T18:00:44.420Z,20.70
2023-04-27T18:03:15.562Z,20.72
2023-04-27T18:05:43.203Z,20.71
2023-04-27T18:08:11.059Z,20.79
2023-04-27T18:10:38.253Z,20.82
2023-04-27T18:13:05.384Z,20.82
2023-04-27T18:15:32.620Z,20.85
2023-04-27T18:17:59.846Z,20.78
2023-04-27T18:20:28.057Z,20.85
2023-04-27T18:22:55.344Z,20.88
2023-04-27T18:25:23.246Z,20.86
2023-04-27T18:27:55.258Z,20.89
2023-04-27T18:30:23.053Z,20.95
2023-04-27T18:32:51.986Z,20.95
2023-04-27T18:35:19.178Z,20.92
2023-04-27T18:37:48.626Z,21.01
2023-04-27T18:40:20.223Z,20.99
2023-04-27T18:42:48.282Z,20.98
2023-04-27T18:45:15.976Z,20.95
2023-04-27T18:47:43.239Z,20.95
2023-04-27T18:50:13.811Z,20.98
2023-04-27T18:52:41.233Z,20.91
2023-04-27T18:55:09.516Z,21.07
2023-04-27T18:57:37.209Z,20.87
2023-04-27T19:00:06.252Z,21.05
2023-04-27T19:02:34.173Z,21.03
2023-04-27T19:07:34.766Z,21.00
2023-04-27T19:10:01.885Z,21.01
2023-04-27T19:12:30.984Z,20.99
2023-04-27T19:14:58.144Z,21.02
2023-04-27T19:17:26.415Z,20.97
2023-04-27T19:19:53.893Z,20.98
2023-04-27T19:22:21.212Z,20.92
2023-04-27T19:24:48.641Z,20.90
2023-04-27T19:27:16.049Z,20.81
2023-04-27T19:29:54.618Z,20.95
2023-04-27T19:32:26.803Z,20.85
2023-04-27T19:34:58.617Z,20.79
2023-04-27T19:37:28.724Z,20.85
2023-04-27T19:39:56.050Z,20.86
2023-04-27T19:42:25.039Z,20.73
2023-04-27T19:44:52.248Z,20.77
2023-04-27T19:47:19.561Z,20.73
2023-04-27T19:49:48.743Z,20.80
2023-04-27T19:52:15.994Z,20.78
2023-04-27T19:54:43.254Z,20.73
2023-04-27T19:57:10.809Z,20.73
2023-04-27T19:59:38.112Z,20.73
2023-04-27T20:02:05.507Z,20.60
2023-04-27T20:04:33.057Z,20.55
2023-04-27T20:07:02.168Z,20.56
2023-04-27T20:09:30.528Z,20.57
2023-04-27T20:11:57.664Z,20.48
2023-04-27T20:14:25.290Z,20.50
2023-04-27T20:16:52.474Z,20.42
2023-04-27T20:19:20.885Z,20.48
2023-04-27T20:21:48.567Z,20.42
2023-04-27T20:24:16.604Z,20.44
2023-04-27T20:26:44.088Z,20.31
2023-04-27T20:29:11.681Z,20.26
2023-04-27T20:31:39.074Z,20.27
2023-04-27T20:34:06.348Z,20.12
2023-04-27T20:36:33.901Z,20.25
2023-04-27T20:39:01.081Z,20.28
2023-04-27T20:41:28.576Z,20.22
2023-04-27T20:43:55.773Z,20.28
2023-04-27T20:46:23.035Z,20.18
2023-04-27T20:48:50.192Z,20.26
2023-04-27T20:51:18.058Z,20.09
2023-04-27T20:53:45.192Z,20.18
2023-04-27T20:56:12.325Z,20.12
2023-04-27T20:58:39.556Z,19.98
2023-04-27T21:01:06.884Z,19.91
2023-04-27T21:03:34.320Z,20.01
2023-04-27T21:06:01.560Z,20.10
2023-04-27T21:08:29.066Z,20.06
2023-04-27T21:10:57.351Z,20.11
2023-04-27T21:13:24.866Z,20.08
2023-04-27T21:15:52.172Z,20.04
2023-04-27T21:18:29.583Z,20.01
2023-04-27T21:20:58.220Z,20.04
2023-04-27T21:23:25.462Z,20.02
2023-04-27T21:25:52.692Z,19.97
2023-04-27T21:28:20.603Z,19.93
2023-04-27T21:30:47.974Z,19.92
2023-04-27T21:33:15.256Z,19.95
2023-04-27T21:35:42.487Z,19.91
2023-04-27T21:38:09.679Z,19.93
2023-04-27T21:40:37.173Z,19.96
2023-04-27T21:43:04.314Z,19.97
2023-04-27T21:45:34.869Z,19.97
2023-04-27T21:48:02.522Z,19.67
2023-04-27T21:50:30.023Z,19.77
2023-04-27T21:52:57.127Z,19.95
2023-04-27T21:55:24.425Z,19.98
2023-04-27T21:57:51.507Z,19.93
2023-04-27T22:00:19.135Z,19.80
2023-04-27T22:02:48.638Z,19.74
2023-04-27T22:05:16.543Z,19.73
2023-04-27T22:07:46.088Z,19.64
2023-04-27T22:10:13.606Z,19.49
2023-04-27T22:12:41.194Z,19.55
2023-04-27T22:15:08.823Z,19.59
2023-04-27T22:17:36.102Z,19.39
2023-04-27T22:20:05.170Z,19.45
2023-04-27T22:22:32.452Z,19.35
2023-04-27T22:24:59.907Z,19.32
2023-04-27T22:27:35.363Z,19.28
2023-04-27T22:30:10.260Z,19.24
2023-04-27T22:32:37.952Z,19.29
2023-04-27T22:35:08.762Z,19.28
2023-04-27T22:37:40.882Z,19.32
2023-04-27T22:40:08.967Z,19.29
2023-04-27T22:42:36.040Z,19.34
2023-04-27T22:45:03.565Z,19.29
2023-04-27T22:47:33.449Z,19.23
2023-04-27T22:50:01.450Z,19.24
2023-04-27T22:52:33.836Z,19.25
2023-04-27T22:55:03.829Z,19.08
2023-04-27T22:57:31.639Z,19.17
2023-04-27T22:59:58.716Z,19.00
2023-04-27T23:02:26.098Z,18.98
2023-04-27T23:04:53.258Z,18.95
2023-04-27T23:07:20.749Z,18.83
2023-04-27T23:09:48.334Z,18.68
2023-04-27T23:12:15.911Z,18.69
2023-04-27T23:14:43.140Z,18.53
2023-04-27T23:17:10.482Z,18.59
2023-04-27T23:19:37.869Z,18.54
2023-04-27T23:22:05.269Z,18.60
2023-04-27T23:24:32.458Z,18.61
2023-04-27T23:26:59.789Z,18.63
2023-04-27T23:29:26.879Z,18.63
2023-04-27T23:31:54.125Z,18.53
2023-04-27T23:34:21.391Z,18.54
2023-04-27T23:36:48.475Z,18.56
2023-04-27T23:39:15.865Z,18.58
2023-04-27T23:41:43.057Z,18.50
2023-04-27T23:44:10.215Z,18.32
2023-04-27T23:46:37.503Z,18.29
2023-04-27T23:49:04.655Z,18.23
2023-04-27T23:51:33.312Z,18.31
2023-04-27T23:54:00.486Z,18.20
2023-04-27T23:56:27.690Z,18.22
2023-04-27T23:58:54.868Z,18.06
